Thu, 22 Aug 2019 19:45:18 UTC

Information for RPM dash-0.5.5.1-3.fc12.x86_64.rpm

ID1388435
Namedash
Version0.5.5.1
Release3.fc12
Epoch
Archx86_64
SummarySmall and fast POSIX-compliant shell
DescriptionDASH is a POSIX-compliant implementation of /bin/sh that aims to be as small as possible. It does this without sacrificing speed where possible. In fact, it is significantly faster than bash (the GNU Bourne-Again SHell) for most tasks.
Build Time2009-07-25 06:14:29 GMT
Size73128
2aac063e44335e14e93227765b9eea35
LicenseBSD
Buildrootdist-f12-build-517418-79907
Provides
dash = 0.5.5.1-3.fc12
dash(x86-64) = 0.5.5.1-3.fc12
Obsoletes No Obsoletes
Conflicts No Conflicts
Requires
libc.so.6()(64bit)
libc.so.6(GLIBC_2.11)(64bit)
libc.so.6(GLIBC_2.2.5)(64bit)
libc.so.6(GLIBC_2.3)(64bit)
libc.so.6(GLIBC_2.3.4)(64bit)
libc.so.6(GLIBC_2.4)(64bit)
rpmlib(CompressedFileNames) <= 3.0.4-1
rpmlib(FileDigests) <= 4.6.0-1
rpmlib(PayloadFilesHavePrefix) <= 4.0-1
rpmlib(PayloadIsXz) <= 5.2-1
rtld(GNU_HASH)
Recommends No Recommends
Suggests No Suggests
Supplements No Supplements
Enhances No Enhances
Files
1 through 2 of 2
Name ascending sort Size
/bin/dash106664
/usr/share/man/man1/dash.1.gz21061
Component of
Page:
1 through 50 of 12715 >>>
Buildroot descending sort Created State
dist-f13-build-1087761-165717 2011-06-23 20:14:58 expired
dist-f13-build-1086032-165328 2011-06-21 16:14:22 expired
dist-f13-build-1083758-164968 2011-06-20 10:50:57 expired
dist-f13-build-1082974-164825 2011-06-18 17:59:27 expired
dist-f13-build-1081213-164450 2011-06-17 01:20:43 expired
dist-f13-build-1079543-164124 2011-06-14 10:45:05 expired
dist-f13-build-1079267-164106 2011-06-13 22:11:21 expired
dist-f13-build-1079108-164085 2011-06-13 17:32:46 expired
dist-f13-build-1078555-163890 2011-06-12 07:59:14 expired
dist-f13-build-1076746-163326 2011-06-08 16:30:27 expired
dist-f13-build-1076741-163326 2011-06-08 16:06:09 expired
dist-f13-build-1076739-163326 2011-06-08 16:03:46 expired
dist-f13-build-1076545-163272 2011-06-08 12:54:21 expired
dist-f13-build-1076223-163216 2011-06-07 22:49:26 expired
dist-f13-build-1076206-163216 2011-06-07 22:18:19 expired
dist-f13-build-1076153-163216 2011-06-07 20:59:42 expired
dist-f13-build-1076030-163216 2011-06-07 19:03:30 expired
dist-f13-build-1076019-163216 2011-06-07 18:59:34 expired
dist-f13-build-1075970-163216 2011-06-07 17:32:10 expired
dist-f13-build-1074598-162986 2011-06-06 05:18:57 expired
dist-f13-build-1074559-162986 2011-06-06 02:42:32 expired
dist-f13-build-1074522-162986 2011-06-06 00:35:41 expired
dist-f13-build-1074428-162958 2011-06-05 16:21:29 expired
dist-f13-build-1074255-162808 2011-06-04 17:03:46 expired
dist-f13-build-1074243-162808 2011-06-04 15:59:39 expired
dist-f13-build-1074123-162808 2011-06-04 02:15:16 expired
dist-f13-build-1073433-162634 2011-06-02 19:52:16 expired
dist-f13-build-1073225-162595 2011-06-02 15:02:07 expired
dist-f13-build-1073154-162570 2011-06-02 13:51:58 expired
dist-f13-build-1072750-162526 2011-06-02 07:38:52 expired
dist-f13-build-1072543-162507 2011-06-02 00:26:47 expired
dist-f13-build-1071211-162102 2011-05-29 12:22:50 expired
dist-f13-build-1071042-161958 2011-05-28 14:59:17 expired
dist-f13-build-1071035-161958 2011-05-28 14:55:30 expired
dist-f13-build-1070722-161940 2011-05-27 19:29:22 expired
dist-f13-build-1069130-161471 2011-05-24 16:17:58 expired
dist-f13-build-1069082-161471 2011-05-24 15:22:11 expired
dist-f13-build-1068866-161368 2011-05-24 06:57:10 expired
dist-f13-build-1068797-161368 2011-05-24 02:29:51 expired
dist-f13-build-1068564-161327 2011-05-23 15:03:56 expired
dist-f13-build-1067985-161199 2011-05-22 12:38:10 expired
dist-f13-build-1067911-161110 2011-05-21 19:30:41 expired
dist-f13-build-1067896-161110 2011-05-21 19:09:02 expired
dist-f13-build-1067886-161110 2011-05-21 18:50:14 expired
dist-f13-build-1067823-161110 2011-05-21 10:34:22 expired
dist-f13-build-1067376-160942 2011-05-20 12:33:28 expired
dist-f13-build-1067345-160942 2011-05-20 11:39:48 expired
dist-f13-build-1067194-160942 2011-05-20 06:38:34 expired
dist-f13-build-1066754-160809 2011-05-19 13:47:15 expired
dist-f13-build-1066703-160809 2011-05-19 12:09:32 expired